sensor_id;sensor_type;location;lat;lon;timestamp;pressure;altitude;pressure_sealevel;temperature
37452;BMP280;23314;51.114;6.900;2023-03-02T00:00:35;102003.06;;;1.57
37452;BMP280;23314;51.114;6.900;2023-03-02T00:03:01;102005.41;;;1.58
37452;BMP280;23314;51.114;6.900;2023-03-02T00:05:28;102012.06;;;1.56
37452;BMP280;23314;51.114;6.900;2023-03-02T00:07:55;102015.78;;;1.55
37452;BMP280;23314;51.114;6.900;2023-03-02T00:10:21;102019.94;;;1.56
37452;BMP280;23314;51.114;6.900;2023-03-02T00:12:46;102017.59;;;1.54
37452;BMP280;23314;51.114;6.900;2023-03-02T00:15:11;102017.13;;;1.52
37452;BMP280;23314;51.114;6.900;2023-03-02T00:17:37;102015.28;;;1.53
37452;BMP280;23314;51.114;6.900;2023-03-02T00:20:03;102018.41;;;1.55
37452;BMP280;23314;51.114;6.900;2023-03-02T00:22:35;102008.16;;;1.53
37452;BMP280;23314;51.114;6.900;2023-03-02T00:25:01;101997.97;;;1.51
37452;BMP280;23314;51.114;6.900;2023-03-02T00:27:26;101999.78;;;1.51
37452;BMP280;23314;51.114;6.900;2023-03-02T00:29:54;101995.13;;;1.48
37452;BMP280;23314;51.114;6.900;2023-03-02T00:32:19;101997.00;;;1.47
37452;BMP280;23314;51.114;6.900;2023-03-02T00:34:45;101997.28;;;1.46
37452;BMP280;23314;51.114;6.900;2023-03-02T00:37:11;101990.78;;;1.43
37452;BMP280;23314;51.114;6.900;2023-03-02T00:39:36;101992.66;;;1.43
37452;BMP280;23314;51.114;6.900;2023-03-02T00:42:01;101992.00;;;1.37
37452;BMP280;23314;51.114;6.900;2023-03-02T00:44:27;101994.16;;;1.35
37452;BMP280;23314;51.114;6.900;2023-03-02T00:46:52;101995.19;;;1.25
37452;BMP280;23314;51.114;6.900;2023-03-02T00:49:17;101992.72;;;1.20
37452;BMP280;23314;51.114;6.900;2023-03-02T00:51:43;101988.16;;;1.12
37452;BMP280;23314;51.114;6.900;2023-03-02T00:54:08;101993.06;;;1.04
37452;BMP280;23314;51.114;6.900;2023-03-02T00:56:34;101984.22;;;1.00
37452;BMP280;23314;51.114;6.900;2023-03-02T00:59:06;101992.69;;;0.97
37452;BMP280;23314;51.114;6.900;2023-03-02T01:01:36;101987.75;;;0.96
37452;BMP280;23314;51.114;6.900;2023-03-02T01:04:01;101984.94;;;0.92
37452;BMP280;23314;51.114;6.900;2023-03-02T01:06:26;101990.00;;;0.88
37452;BMP280;23314;51.114;6.900;2023-03-02T01:08:52;101975.13;;;0.84
37452;BMP280;23314;51.114;6.900;2023-03-02T01:11:20;101977.59;;;0.80
37452;BMP280;23314;51.114;6.900;2023-03-02T01:13:45;101966.22;;;0.71
37452;BMP280;23314;51.114;6.900;2023-03-02T01:16:11;101967.88;;;0.67
37452;BMP280;23314;51.114;6.900;2023-03-02T01:18:37;101966.66;;;0.64
37452;BMP280;23314;51.114;6.900;2023-03-02T01:21:06;101955.47;;;0.58
37452;BMP280;23314;51.114;6.900;2023-03-02T01:23:32;101953.72;;;0.54
37452;BMP280;23314;51.114;6.900;2023-03-02T01:25:57;101959.09;;;0.49
37452;BMP280;23314;51.114;6.900;2023-03-02T01:28:23;101954.72;;;0.44
37452;BMP280;23314;51.114;6.900;2023-03-02T01:30:48;101951.44;;;0.38
37452;BMP280;23314;51.114;6.900;2023-03-02T01:33:13;101953.59;;;0.36
37452;BMP280;23314;51.114;6.900;2023-03-02T01:35:39;101947.38;;;0.32
37452;BMP280;23314;51.114;6.900;2023-03-02T01:38:04;101937.78;;;0.27
37452;BMP280;23314;51.114;6.900;2023-03-02T01:40:29;101941.75;;;0.25
37452;BMP280;23314;51.114;6.900;2023-03-02T01:42:57;101933.72;;;0.21
37452;BMP280;23314;51.114;6.900;2023-03-02T01:46:03;101931.97;;;0.17
37452;BMP280;23314;51.114;6.900;2023-03-02T01:48:38;101932.06;;;0.11
37452;BMP280;23314;51.114;6.900;2023-03-02T01:51:07;101929.75;;;0.10
37452;BMP280;23314;51.114;6.900;2023-03-02T01:53:34;101920.81;;;0.11
37452;BMP280;23314;51.114;6.900;2023-03-02T01:56:00;101919.75;;;0.12
37452;BMP280;23314;51.114;6.900;2023-03-02T01:58:27;101918.84;;;0.17
37452;BMP280;23314;51.114;6.900;2023-03-02T02:00:55;101922.94;;;0.23
37452;BMP280;23314;51.114;6.900;2023-03-02T02:03:23;101921.38;;;0.22
37452;BMP280;23314;51.114;6.900;2023-03-02T02:06:45;101913.03;;;0.20
37452;BMP280;23314;51.114;6.900;2023-03-02T02:08:53;101925.16;;;0.16
37452;BMP280;23314;51.114;6.900;2023-03-02T02:11:19;101916.50;;;0.15
37452;BMP280;23314;51.114;6.900;2023-03-02T02:13:44;101921.25;;;0.13
37452;BMP280;23314;51.114;6.900;2023-03-02T02:16:10;101918.19;;;0.11
37452;BMP280;23314;51.114;6.900;2023-03-02T02:18:38;101923.22;;;0.07
37452;BMP280;23314;51.114;6.900;2023-03-02T02:21:04;101916.44;;;0.06
37452;BMP280;23314;51.114;6.900;2023-03-02T02:26:15;101928.00;;;0.05
37452;BMP280;23314;51.114;6.900;2023-03-02T02:31:41;101923.63;;;0.01
37452;BMP280;23314;51.114;6.900;2023-03-02T02:36:47;101922.19;;;-0.06
37452;BMP280;23314;51.114;6.900;2023-03-02T02:39:18;101917.50;;;-0.09
37452;BMP280;23314;51.114;6.900;2023-03-02T02:41:45;101912.75;;;-0.07
37452;BMP280;23314;51.114;6.900;2023-03-02T02:44:15;101918.97;;;-0.03
37452;BMP280;23314;51.114;6.900;2023-03-02T02:46:42;101910.81;;;-0.01
37452;BMP280;23314;51.114;6.900;2023-03-02T02:49:30;101908.19;;;-0.01
37452;BMP280;23314;51.114;6.900;2023-03-02T02:51:58;101916.53;;;0.01
37452;BMP280;23314;51.114;6.900;2023-03-02T02:54:23;101914.88;;;0.05
37452;BMP280;23314;51.114;6.900;2023-03-02T02:56:49;101903.63;;;0.05
37452;BMP280;23314;51.114;6.900;2023-03-02T02:59:22;101909.63;;;0.05
37452;BMP280;23314;51.114;6.900;2023-03-02T03:01:49;101907.69;;;0.11
37452;BMP280;23314;51.114;6.900;2023-03-02T03:04:21;101907.88;;;0.14
37452;BMP280;23314;51.114;6.900;2023-03-02T03:06:58;101903.88;;;0.17
37452;BMP280;23314;51.114;6.900;2023-03-02T03:09:24;101904.19;;;0.16
37452;BMP280;23314;51.114;6.900;2023-03-02T03:11:52;101905.25;;;0.14
37452;BMP280;23314;51.114;6.900;2023-03-02T03:14:21;101901.38;;;0.12
37452;BMP280;23314;51.114;6.900;2023-03-02T03:16:49;101891.16;;;0.10
37452;BMP280;23314;51.114;6.900;2023-03-02T03:19:30;101899.63;;;0.07
37452;BMP280;23314;51.114;6.900;2023-03-02T03:22:00;101891.84;;;0.02
37452;BMP280;23314;51.114;6.900;2023-03-02T03:24:26;101896.50;;;0.05
37452;BMP280;23314;51.114;6.900;2023-03-02T03:26:52;101891.25;;;0.05
37452;BMP280;23314;51.114;6.900;2023-03-02T03:29:23;101897.28;;;0.06
37452;BMP280;23314;51.114;6.900;2023-03-02T03:31:53;101892.06;;;0.06
37452;BMP280;23314;51.114;6.900;2023-03-02T03:34:19;101896.50;;;0.05
37452;BMP280;23314;51.114;6.900;2023-03-02T03:36:45;101900.03;;;0.01
37452;BMP280;23314;51.114;6.900;2023-03-02T03:39:12;101893.03;;;-0.04
37452;BMP280;23314;51.114;6.900;2023-03-02T03:41:38;101897.31;;;-0.08
37452;BMP280;23314;51.114;6.900;2023-03-02T03:44:04;101898.66;;;-0.11
37452;BMP280;23314;51.114;6.900;2023-03-02T03:46:29;101898.78;;;-0.16
37452;BMP280;23314;51.114;6.900;2023-03-02T03:48:55;101900.34;;;-0.15
37452;BMP280;23314;51.114;6.900;2023-03-02T03:51:21;101893.72;;;-0.12
37452;BMP280;23314;51.114;6.900;2023-03-02T03:53:47;101899.72;;;-0.12
37452;BMP280;23314;51.114;6.900;2023-03-02T03:56:25;101887.22;;;-0.15
37452;BMP280;23314;51.114;6.900;2023-03-02T03:58:50;101888.38;;;-0.21
37452;BMP280;23314;51.114;6.900;2023-03-02T04:01:18;101896.84;;;-0.24
37452;BMP280;23314;51.114;6.900;2023-03-02T04:03:43;101895.88;;;-0.28
37452;BMP280;23314;51.114;6.900;2023-03-02T04:06:08;101895.94;;;-0.34
37452;BMP280;23314;51.114;6.900;2023-03-02T04:08:43;101899.91;;;-0.36
37452;BMP280;23314;51.114;6.900;2023-03-02T04:11:08;101901.47;;;-0.35
37452;BMP280;23314;51.114;6.900;2023-03-02T04:13:33;101897.88;;;-0.39
37452;BMP280;23314;51.114;6.900;2023-03-02T04:15:59;101894.00;;;-0.42
37452;BMP280;23314;51.114;6.900;2023-03-02T04:18:24;101904.50;;;-0.42
37452;BMP280;23314;51.114;6.900;2023-03-02T04:20:49;101892.94;;;-0.41
37452;BMP280;23314;51.114;6.900;2023-03-02T04:23:15;101898.84;;;-0.35
37452;BMP280;23314;51.114;6.900;2023-03-02T04:25:40;101889.38;;;-0.31
37452;BMP280;23314;51.114;6.900;2023-03-02T04:28:05;101888.78;;;-0.28
37452;BMP280;23314;51.114;6.900;2023-03-02T04:30:31;101891.09;;;-0.26
37452;BMP280;23314;51.114;6.900;2023-03-02T04:32:57;101894.53;;;-0.26
37452;BMP280;23314;51.114;6.900;2023-03-02T04:35:23;101890.84;;;-0.25
37452;BMP280;23314;51.114;6.900;2023-03-02T04:37:49;101889.56;;;-0.27
37452;BMP280;23314;51.114;6.900;2023-03-02T04:40:15;101894.31;;;-0.29
37452;BMP280;23314;51.114;6.900;2023-03-02T04:42:42;101892.75;;;-0.31
37452;BMP280;23314;51.114;6.900;2023-03-02T04:45:09;101896.34;;;-0.26
37452;BMP280;23314;51.114;6.900;2023-03-02T04:47:34;101893.16;;;-0.23
37452;BMP280;23314;51.114;6.900;2023-03-02T04:49:59;101891.78;;;-0.21
37452;BMP280;23314;51.114;6.900;2023-03-02T04:52:25;101888.88;;;-0.19
37452;BMP280;23314;51.114;6.900;2023-03-02T04:54:50;101888.28;;;-0.16
37452;BMP280;23314;51.114;6.900;2023-03-02T04:57:16;101887.50;;;-0.17
37452;BMP280;23314;51.114;6.900;2023-03-02T04:59:41;101885.19;;;-0.18
37452;BMP280;23314;51.114;6.900;2023-03-02T05:02:07;101887.59;;;-0.22
37452;BMP280;23314;51.114;6.900;2023-03-02T05:04:33;101895.59;;;-0.27
37452;BMP280;23314;51.114;6.900;2023-03-02T05:06:58;101882.56;;;-0.32
37452;BMP280;23314;51.114;6.900;2023-03-02T05:09:24;101889.25;;;-0.40
37452;BMP280;23314;51.114;6.900;2023-03-02T05:11:55;101890.41;;;-0.46
37452;BMP280;23314;51.114;6.900;2023-03-02T05:14:22;101889.91;;;-0.48
37452;BMP280;23314;51.114;6.900;2023-03-02T05:16:47;101886.81;;;-0.50
37452;BMP280;23314;51.114;6.900;2023-03-02T05:19:13;101880.69;;;-0.46
37452;BMP280;23314;51.114;6.900;2023-03-02T05:21:39;101888.75;;;-0.42
37452;BMP280;23314;51.114;6.900;2023-03-02T05:24:05;101882.94;;;-0.39
37452;BMP280;23314;51.114;6.900;2023-03-02T05:26:30;101890.13;;;-0.31
37452;BMP280;23314;51.114;6.900;2023-03-02T05:28:56;101883.53;;;-0.28
37452;BMP280;23314;51.114;6.900;2023-03-02T05:31:29;101889.72;;;-0.24
37452;BMP280;23314;51.114;6.900;2023-03-02T05:33:54;101887.59;;;-0.22
37452;BMP280;23314;51.114;6.900;2023-03-02T05:36:21;101886.25;;;-0.19
37452;BMP280;23314;51.114;6.900;2023-03-02T05:38:46;101880.22;;;-0.20
37452;BMP280;23314;51.114;6.900;2023-03-02T05:41:11;101884.22;;;-0.22
37452;BMP280;23314;51.114;6.900;2023-03-02T05:43:38;101884.78;;;-0.25
37452;BMP280;23314;51.114;6.900;2023-03-02T05:46:03;101886.75;;;-0.31
37452;BMP280;23314;51.114;6.900;2023-03-02T05:48:29;101896.16;;;-0.30
37452;BMP280;23314;51.114;6.900;2023-03-02T05:50:55;101888.00;;;-0.28
37452;BMP280;23314;51.114;6.900;2023-03-02T05:53:21;101886.66;;;-0.26
37452;BMP280;23314;51.114;6.900;2023-03-02T05:55:47;101887.59;;;-0.22
37452;BMP280;23314;51.114;6.900;2023-03-02T05:58:15;101885.28;;;-0.23
37452;BMP280;23314;51.114;6.900;2023-03-02T06:00:41;101890.34;;;-0.27
37452;BMP280;23314;51.114;6.900;2023-03-02T06:03:06;101898.00;;;-0.31
37452;BMP280;23314;51.114;6.900;2023-03-02T06:05:32;101902.53;;;-0.36
37452;BMP280;23314;51.114;6.900;2023-03-02T06:07:58;101899.44;;;-0.38
37452;BMP280;23314;51.114;6.900;2023-03-02T06:10:23;101900.59;;;-0.45
37452;BMP280;23314;51.114;6.900;2023-03-02T06:12:49;101894.84;;;-0.47
37452;BMP280;23314;51.114;6.900;2023-03-02T06:15:15;101895.16;;;-0.48
37452;BMP280;23314;51.114;6.900;2023-03-02T06:17:40;101897.78;;;-0.48
37452;BMP280;23314;51.114;6.900;2023-03-02T06:20:07;101896.72;;;-0.47
37452;BMP280;23314;51.114;6.900;2023-03-02T06:22:39;101896.53;;;-0.37
37452;BMP280;23314;51.114;6.900;2023-03-02T06:25:17;101892.09;;;-0.22
37452;BMP280;23314;51.114;6.900;2023-03-02T06:27:44;101901.09;;;-0.14
37452;BMP280;23314;51.114;6.900;2023-03-02T06:30:14;101906.06;;;-0.13
37452;BMP280;23314;51.114;6.900;2023-03-02T06:32:40;101903.31;;;-0.08
37452;BMP280;23314;51.114;6.900;2023-03-02T06:35:07;101902.16;;;-0.02
37452;BMP280;23314;51.114;6.900;2023-03-02T06:37:32;101904.69;;;0.04
37452;BMP280;23314;51.114;6.900;2023-03-02T06:39:58;101911.75;;;0.03
37452;BMP280;23314;51.114;6.900;2023-03-02T06:42:24;101907.31;;;0.04
37452;BMP280;23314;51.114;6.900;2023-03-02T06:44:50;101903.63;;;0.05
37452;BMP280;23314;51.114;6.900;2023-03-02T06:47:16;101907.78;;;0.06
37452;BMP280;23314;51.114;6.900;2023-03-02T06:49:42;101907.50;;;0.07
37452;BMP280;23314;51.114;6.900;2023-03-02T06:52:07;101911.38;;;0.10
37452;BMP280;23314;51.114;6.900;2023-03-02T06:54:35;101912.94;;;0.11
37452;BMP280;23314;51.114;6.900;2023-03-02T06:57:00;101913.88;;;0.15
37452;BMP280;23314;51.114;6.900;2023-03-02T06:59:25;101914.09;;;0.19
37452;BMP280;23314;51.114;6.900;2023-03-02T07:01:51;101910.25;;;0.25
37452;BMP280;23314;51.114;6.900;2023-03-02T07:04:17;101912.50;;;0.32
37452;BMP280;23314;51.114;6.900;2023-03-02T07:06:42;101915.16;;;0.40
37452;BMP280;23314;51.114;6.900;2023-03-02T07:09:07;101912.91;;;0.48
37452;BMP280;23314;51.114;6.900;2023-03-02T07:11:33;101915.91;;;0.55
37452;BMP280;23314;51.114;6.900;2023-03-02T07:13:59;101918.59;;;0.64
37452;BMP280;23314;51.114;6.900;2023-03-02T07:16:25;101918.34;;;0.74
37452;BMP280;23314;51.114;6.900;2023-03-02T07:18:50;101921.03;;;0.83
37452;BMP280;23314;51.114;6.900;2023-03-02T07:21:15;101918.94;;;0.94
37452;BMP280;23314;51.114;6.900;2023-03-02T07:23:40;101922.56;;;1.07
37452;BMP280;23314;51.114;6.900;2023-03-02T07:26:06;101920.47;;;1.17
37452;BMP280;23314;51.114;6.900;2023-03-02T07:28:36;101925.97;;;1.30
37452;BMP280;23314;51.114;6.900;2023-03-02T07:31:06;101918.25;;;1.42
37452;BMP280;23314;51.114;6.900;2023-03-02T07:33:33;101924.78;;;1.54
37452;BMP280;23314;51.114;6.900;2023-03-02T07:35:58;101923.91;;;1.67
37452;BMP280;23314;51.114;6.900;2023-03-02T07:38:24;101918.84;;;1.79
37452;BMP280;23314;51.114;6.900;2023-03-02T07:40:49;101923.50;;;1.91
37452;BMP280;23314;51.114;6.900;2023-03-02T07:43:15;101921.03;;;2.04
37452;BMP280;23314;51.114;6.900;2023-03-02T07:45:41;101924.59;;;2.17
37452;BMP280;23314;51.114;6.900;2023-03-02T07:48:06;101923.25;;;2.28
37452;BMP280;23314;51.114;6.900;2023-03-02T07:50:32;101915.78;;;2.39
37452;BMP280;23314;51.114;6.900;2023-03-02T07:52:58;101923.34;;;2.49
37452;BMP280;23314;51.114;6.900;2023-03-02T07:55:23;101926.44;;;2.60
37452;BMP280;23314;51.114;6.900;2023-03-02T07:57:49;101927.97;;;2.70
37452;BMP280;23314;51.114;6.900;2023-03-02T08:00:15;101930.56;;;2.79
37452;BMP280;23314;51.114;6.900;2023-03-02T08:02:41;101921.91;;;2.87
37452;BMP280;23314;51.114;6.900;2023-03-02T08:05:07;101929.16;;;2.99
37452;BMP280;23314;51.114;6.900;2023-03-02T08:07:33;101925.56;;;3.12
37452;BMP280;23314;51.114;6.900;2023-03-02T08:09:58;101931.25;;;3.23
37452;BMP280;23314;51.114;6.900;2023-03-02T08:12:25;101922.97;;;3.33
37452;BMP280;23314;51.114;6.900;2023-03-02T08:14:51;101931.75;;;3.46
37452;BMP280;23314;51.114;6.900;2023-03-02T08:17:16;101927.94;;;3.56
37452;BMP280;23314;51.114;6.900;2023-03-02T08:19:41;101924.19;;;3.66
37452;BMP280;23314;51.114;6.900;2023-03-02T08:22:06;101929.41;;;3.75
37452;BMP280;23314;51.114;6.900;2023-03-02T08:24:32;101924.84;;;3.84
37452;BMP280;23314;51.114;6.900;2023-03-02T08:27:01;101932.41;;;3.94
37452;BMP280;23314;51.114;6.900;2023-03-02T08:29:27;101931.22;;;4.04
37452;BMP280;23314;51.114;6.900;2023-03-02T08:31:53;101931.63;;;4.15
37452;BMP280;23314;51.114;6.900;2023-03-02T08:34:19;101934.63;;;4.26
37452;BMP280;23314;51.114;6.900;2023-03-02T08:36:44;101932.22;;;4.33
37452;BMP280;23314;51.114;6.900;2023-03-02T08:39:10;101922.69;;;4.41
37452;BMP280;23314;51.114;6.900;2023-03-02T08:41:36;101923.69;;;4.49
37452;BMP280;23314;51.114;6.900;2023-03-02T08:44:01;101918.44;;;4.61
37452;BMP280;23314;51.114;6.900;2023-03-02T08:46:27;101910.53;;;4.73
37452;BMP280;23314;51.114;6.900;2023-03-02T08:48:52;101911.22;;;4.83
37452;BMP280;23314;51.114;6.900;2023-03-02T08:51:21;101910.00;;;4.93
37452;BMP280;23314;51.114;6.900;2023-03-02T08:53:48;101914.19;;;5.06
37452;BMP280;23314;51.114;6.900;2023-03-02T08:56:19;101907.69;;;5.16
37452;BMP280;23314;51.114;6.900;2023-03-02T08:58:45;101909.44;;;5.24
37452;BMP280;23314;51.114;6.900;2023-03-02T09:01:31;101912.00;;;5.33
37452;BMP280;23314;51.114;6.900;2023-03-02T09:03:57;101908.75;;;5.40
37452;BMP280;23314;51.114;6.900;2023-03-02T09:06:25;101916.72;;;5.52
37452;BMP280;23314;51.114;6.900;2023-03-02T09:08:51;101904.22;;;5.65
37452;BMP280;23314;51.114;6.900;2023-03-02T09:11:16;101910.56;;;5.76
37452;BMP280;23314;51.114;6.900;2023-03-02T09:13:42;101911.53;;;5.84
37452;BMP280;23314;51.114;6.900;2023-03-02T09:16:08;101905.41;;;5.96
37452;BMP280;23314;51.114;6.900;2023-03-02T09:18:33;101895.44;;;6.05
37452;BMP280;23314;51.114;6.900;2023-03-02T09:20:59;101899.06;;;6.13
37452;BMP280;23314;51.114;6.900;2023-03-02T09:23:26;101893.94;;;6.20
37452;BMP280;23314;51.114;6.900;2023-03-02T09:25:51;101894.97;;;6.32
37452;BMP280;23314;51.114;6.900;2023-03-02T09:28:17;101887.97;;;6.39
37452;BMP280;23314;51.114;6.900;2023-03-02T09:30:50;101892.00;;;6.49
37452;BMP280;23314;51.114;6.900;2023-03-02T09:33:17;101888.81;;;6.59
37452;BMP280;23314;51.114;6.900;2023-03-02T09:35:42;101887.91;;;6.68
37452;BMP280;23314;51.114;6.900;2023-03-02T09:38:08;101879.31;;;6.74
37452;BMP280;23314;51.114;6.900;2023-03-02T09:40:46;101885.63;;;6.86
37452;BMP280;23314;51.114;6.900;2023-03-02T09:52:20;101892.66;;;7.30
37452;BMP280;23314;51.114;6.900;2023-03-02T09:54:51;101878.72;;;7.36
37452;BMP280;23314;51.114;6.900;2023-03-02T09:57:23;101868.69;;;7.46
37452;BMP280;23314;51.114;6.900;2023-03-02T10:00:03;101872.72;;;7.59
37452;BMP280;23314;51.114;6.900;2023-03-02T10:02:35;101875.22;;;7.68
37452;BMP280;23314;51.114;6.900;2023-03-02T10:05:04;101873.50;;;7.79
37452;BMP280;23314;51.114;6.900;2023-03-02T10:07:32;101874.47;;;7.91
37452;BMP280;23314;51.114;6.900;2023-03-02T10:10:23;101874.22;;;7.99
37452;BMP280;23314;51.114;6.900;2023-03-02T10:15:26;101866.31;;;8.26
37452;BMP280;23314;51.114;6.900;2023-03-02T10:18:02;101869.88;;;8.34
37452;BMP280;23314;51.114;6.900;2023-03-02T10:20:48;101878.34;;;8.43
37452;BMP280;23314;51.114;6.900;2023-03-02T10:23:38;101861.44;;;8.55
37452;BMP280;23314;51.114;6.900;2023-03-02T10:28:44;101861.69;;;8.73
37452;BMP280;23314;51.114;6.900;2023-03-02T10:31:17;101853.78;;;8.77
37452;BMP280;23314;51.114;6.900;2023-03-02T10:33:47;101858.03;;;8.85
37452;BMP280;23314;51.114;6.900;2023-03-02T10:36:28;101863.44;;;8.92
37452;BMP280;23314;51.114;6.900;2023-03-02T10:38:55;101852.56;;;9.05
37452;BMP280;23314;51.114;6.900;2023-03-02T10:41:25;101846.25;;;9.17
37452;BMP280;23314;51.114;6.900;2023-03-02T10:46:41;101847.97;;;9.32
37452;BMP280;23314;51.114;6.900;2023-03-02T10:51:57;101849.00;;;9.61
37452;BMP280;23314;51.114;6.900;2023-03-02T10:54:22;101839.97;;;9.70
37452;BMP280;23314;51.114;6.900;2023-03-02T10:56:52;101839.66;;;9.78
37452;BMP280;23314;51.114;6.900;2023-03-02T11:01:57;101839.38;;;9.91
37452;BMP280;23314;51.114;6.900;2023-03-02T11:04:23;101834.81;;;9.95
37452;BMP280;23314;51.114;6.900;2023-03-02T11:06:48;101827.25;;;10.01
37452;BMP280;23314;51.114;6.900;2023-03-02T11:09:14;101822.72;;;10.05
37452;BMP280;23314;51.114;6.900;2023-03-02T11:11:48;101823.91;;;10.07
37452;BMP280;23314;51.114;6.900;2023-03-02T11:14:16;101832.28;;;10.13
37452;BMP280;23314;51.114;6.900;2023-03-02T11:16:42;101827.78;;;10.21
37452;BMP280;23314;51.114;6.900;2023-03-02T11:19:14;101824.03;;;10.33
37452;BMP280;23314;51.114;6.900;2023-03-02T11:22:31;101821.81;;;10.46
37452;BMP280;23314;51.114;6.900;2023-03-02T11:25:01;101820.34;;;10.55
37452;BMP280;23314;51.114;6.900;2023-03-02T11:27:30;101822.31;;;10.66
37452;BMP280;23314;51.114;6.900;2023-03-02T11:29:58;101820.41;;;10.66
37452;BMP280;23314;51.114;6.900;2023-03-02T11:32:33;101809.72;;;10.63
37452;BMP280;23314;51.114;6.900;2023-03-02T11:35:09;101815.03;;;10.63
37452;BMP280;23314;51.114;6.900;2023-03-02T11:37:45;101816.22;;;10.72
37452;BMP280;23314;51.114;6.900;2023-03-02T11:42:44;101806.78;;;10.93
37452;BMP280;23314;51.114;6.900;2023-03-02T11:47:38;101799.56;;;11.04
37452;BMP280;23314;51.114;6.900;2023-03-02T11:50:06;101814.47;;;11.09
37452;BMP280;23314;51.114;6.900;2023-03-02T11:52:37;101800.72;;;11.07
37452;BMP280;23314;51.114;6.900;2023-03-02T11:55:26;101792.31;;;11.12
37452;BMP280;23314;51.114;6.900;2023-03-02T11:57:54;101798.06;;;11.14
37452;BMP280;23314;51.114;6.900;2023-03-02T12:00:27;101790.44;;;11.16
37452;BMP280;23314;51.114;6.900;2023-03-02T12:03:52;101797.31;;;11.28
37452;BMP280;23314;51.114;6.900;2023-03-02T12:11:01;101785.88;;;11.49
37452;BMP280;23314;51.114;6.900;2023-03-02T12:13:31;101786.28;;;11.59
37452;BMP280;23314;51.114;6.900;2023-03-02T12:15:58;101784.38;;;11.63
37452;BMP280;23314;51.114;6.900;2023-03-02T12:21:20;101779.75;;;11.60
37452;BMP280;23314;51.114;6.900;2023-03-02T12:26:31;101774.41;;;11.67
37452;BMP280;23314;51.114;6.900;2023-03-02T12:31:23;101774.06;;;11.65
37452;BMP280;23314;51.114;6.900;2023-03-02T12:33:50;101768.69;;;11.72
37452;BMP280;23314;51.114;6.900;2023-03-02T12:36:34;101759.53;;;11.80
37452;BMP280;23314;51.114;6.900;2023-03-02T12:39:16;101772.50;;;11.85
37452;BMP280;23314;51.114;6.900;2023-03-02T12:45:00;101751.50;;;11.80
37452;BMP280;23314;51.114;6.900;2023-03-02T12:47:27;101759.88;;;11.82
37452;BMP280;23314;51.114;6.900;2023-03-02T12:49:56;101758.72;;;11.83
37452;BMP280;23314;51.114;6.900;2023-03-02T12:52:30;101754.16;;;11.87
37452;BMP280;23314;51.114;6.900;2023-03-02T12:55:19;101747.66;;;11.88
37452;BMP280;23314;51.114;6.900;2023-03-02T12:57:52;101749.94;;;11.90
37452;BMP280;23314;51.114;6.900;2023-03-02T13:00:21;101740.75;;;11.95
37452;BMP280;23314;51.114;6.900;2023-03-02T13:02:50;101734.25;;;11.96
37452;BMP280;23314;51.114;6.900;2023-03-02T13:05:21;101733.06;;;12.07
37452;BMP280;23314;51.114;6.900;2023-03-02T13:12:54;101721.13;;;12.30
37452;BMP280;23314;51.114;6.900;2023-03-02T13:15:20;101720.78;;;12.32
37452;BMP280;23314;51.114;6.900;2023-03-02T13:17:58;101717.72;;;12.30
37452;BMP280;23314;51.114;6.900;2023-03-02T13:20:26;101719.59;;;12.29
37452;BMP280;23314;51.114;6.900;2023-03-02T13:22:52;101711.97;;;12.31
37452;BMP280;23314;51.114;6.900;2023-03-02T13:25:29;101713.81;;;12.42
37452;BMP280;23314;51.114;6.900;2023-03-02T13:28:00;101707.69;;;12.45
37452;BMP280;23314;51.114;6.900;2023-03-02T13:30:35;101702.72;;;12.43
37452;BMP280;23314;51.114;6.900;2023-03-02T13:33:21;101705.41;;;12.43
37452;BMP280;23314;51.114;6.900;2023-03-02T13:35:47;101699.66;;;12.45
37452;BMP280;23314;51.114;6.900;2023-03-02T13:38:16;101704.63;;;12.50
37452;BMP280;23314;51.114;6.900;2023-03-02T13:40:46;101706.88;;;12.55
37452;BMP280;23314;51.114;6.900;2023-03-02T13:43:23;101708.38;;;12.56
37452;BMP280;23314;51.114;6.900;2023-03-02T13:48:37;101697.31;;;12.58
37452;BMP280;23314;51.114;6.900;2023-03-02T13:51:15;101691.50;;;12.63
37452;BMP280;23314;51.114;6.900;2023-03-02T13:54:01;101693.38;;;12.69
37452;BMP280;23314;51.114;6.900;2023-03-02T13:56:38;101692.22;;;12.74
37452;BMP280;23314;51.114;6.900;2023-03-02T13:59:14;101701.41;;;12.73
37452;BMP280;23314;51.114;6.900;2023-03-02T14:01:40;101700.19;;;12.78
37452;BMP280;23314;51.114;6.900;2023-03-02T14:04:10;101694.81;;;12.85
37452;BMP280;23314;51.114;6.900;2023-03-02T14:06:35;101690.22;;;12.89
37452;BMP280;23314;51.114;6.900;2023-03-02T14:09:01;101686.69;;;12.96
37452;BMP280;23314;51.114;6.900;2023-03-02T14:11:30;101679.44;;;12.93
37452;BMP280;23314;51.114;6.900;2023-03-02T14:13:57;101682.16;;;12.89
37452;BMP280;23314;51.114;6.900;2023-03-02T14:16:23;101677.22;;;12.84
37452;BMP280;23314;51.114;6.900;2023-03-02T14:18:49;101677.59;;;12.86
37452;BMP280;23314;51.114;6.900;2023-03-02T14:21:21;101674.13;;;12.89
37452;BMP280;23314;51.114;6.900;2023-03-02T14:23:47;101667.56;;;12.94
37452;BMP280;23314;51.114;6.900;2023-03-02T14:29:17;101680.66;;;12.88
37452;BMP280;23314;51.114;6.900;2023-03-02T14:31:44;101669.16;;;12.87
37452;BMP280;23314;51.114;6.900;2023-03-02T14:34:14;101663.78;;;12.91
37452;BMP280;23314;51.114;6.900;2023-03-02T14:36:41;101672.56;;;12.95
37452;BMP280;23314;51.114;6.900;2023-03-02T14:39:18;101663.31;;;13.00
37452;BMP280;23314;51.114;6.900;2023-03-02T14:41:44;101665.22;;;13.03
37452;BMP280;23314;51.114;6.900;2023-03-02T14:44:09;101658.28;;;13.05
37452;BMP280;23314;51.114;6.900;2023-03-02T14:46:35;101656.75;;;13.08
37452;BMP280;23314;51.114;6.900;2023-03-02T14:49:00;101646.03;;;13.08
37452;BMP280;23314;51.114;6.900;2023-03-02T14:51:28;101653.31;;;13.08
37452;BMP280;23314;51.114;6.900;2023-03-02T14:53:55;101656.34;;;13.10
37452;BMP280;23314;51.114;6.900;2023-03-02T14:56:22;101647.19;;;13.07
37452;BMP280;23314;51.114;6.900;2023-03-02T14:58:48;101646.03;;;13.04
37452;BMP280;23314;51.114;6.900;2023-03-02T15:01:14;101645.38;;;12.97
37452;BMP280;23314;51.114;6.900;2023-03-02T15:03:39;101639.28;;;12.93
37452;BMP280;23314;51.114;6.900;2023-03-02T15:06:21;101648.47;;;12.92
37452;BMP280;23314;51.114;6.900;2023-03-02T15:08:48;101650.75;;;12.93
37452;BMP280;23314;51.114;6.900;2023-03-02T15:11:13;101642.00;;;12.89
37452;BMP280;23314;51.114;6.900;2023-03-02T15:13:39;101643.16;;;12.88